Time;durP1;ratioP1;P1;durP2;ratioP2;P2;SDS_P1;SDS_P2;PMS_P1;PMS_P2;Temp;Humidity;BMP_temperature;BMP_pressure;BME280_temperature;BME280_humidity;BME280_pressure;Samples;Min_cycle;Max_cycle;Signal;HPM_P1;HPM_P2
2022/01/16 07:41:43;;;;;;;347.95;115.85;;;-3.10;99.90;;;;;;5098918;27;20398;-93
2022/01/16 07:54:03;;;;;;;387.42;130.45;;;-2.60;99.90;;;;;;5155297;27;20474;-93
2022/01/16 07:56:29;;;;;;;354.85;117.78;;;-2.60;99.90;;;;;;5154646;27;20072;-93
2022/01/16 11:08:59;;;;;;;88.43;38.50;;;4.80;99.90;;;;;;5073785;28;20375;-94
2022/01/16 11:11:25;;;;;;;82.82;36.88;;;5.00;99.90;;;;;;5053180;28;20036;-95
2022/01/16 11:14:03;;;;;;;95.93;40.70;;;5.20;99.90;;;;;;5051732;28;20052;-95
2022/01/16 11:16:33;;;;;;;123.40;53.05;;;5.40;99.90;;;;;;5052240;28;20034;-95
2022/01/16 11:19:22;;;;;;;;;;;;;;;;;;;;;
2022/01/16 11:22:04;;;;;;;122.43;51.95;;;5.90;99.70;;;;;;5053358;28;20032;-95
2022/01/16 11:24:48;;;;;;;126.55;56.30;;;6.20;99.20;;;;;;5052264;28;20037;-95
2022/01/16 11:27:22;;;;;;;135.95;57.63;;;6.40;98.90;;;;;;5052707;28;20037;-95
2022/01/16 11:29:51;;;;;;;170.07;71.07;;;6.60;98.10;;;;;;5051690;28;20029;-95
2022/01/16 11:32:22;;;;;;;170.00;72.55;;;6.70;97.40;;;;;;5052574;28;20041;-94
2022/01/16 11:34:51;;;;;;;178.07;76.25;;;6.70;98.00;;;;;;5052571;28;20064;-95
2022/01/16 11:37:25;;;;;;;191.88;82.05;;;6.90;98.10;;;;;;5051947;28;20033;-95
2022/01/16 11:40:17;;;;;;;209.52;92.28;;;7.10;97.20;;;;;;5052645;28;20021;-94
2022/01/16 11:43:20;;;;;;;201.52;86.75;;;7.10;97.00;;;;;;5052522;28;20041;-94
2022/01/16 11:46:06;;;;;;;209.07;87.97;;;7.40;96.40;;;;;;5050837;28;20036;-95
2022/01/16 11:48:49;;;;;;;183.68;83.55;;;7.70;96.00;;;;;;5050719;28;20055;-94
2022/01/16 11:51:39;;;;;;;173.65;75.70;;;8.00;95.60;;;;;;5051673;28;20079;-95
2022/01/16 11:54:13;;;;;;;157.43;71.80;;;8.10;94.30;;;;;;5051568;28;20026;-96
2022/01/16 11:56:49;;;;;;;154.55;68.63;;;8.20;94.20;;;;;;5051566;28;20375;-95
2022/01/16 11:59:28;;;;;;;150.90;66.60;;;8.30;93.70;;;;;;5051378;28;20031;-95
2022/01/16 12:02:03;;;;;;;151.95;67.78;;;8.40;93.90;;;;;;5051420;28;20067;-95
2022/01/16 12:04:29;;;;;;;143.27;64.88;;;8.50;93.40;;;;;;5051928;28;20025;-95
2022/01/16 12:07:19;;;;;;;146.05;62.45;;;8.60;92.80;;;;;;5050568;28;20399;-95
2022/01/16 12:09:52;;;;;;;138.05;62.22;;;8.60;92.90;;;;;;5050289;28;20095;-95
2022/01/16 12:12:23;;;;;;;136.80;61.72;;;8.60;92.80;;;;;;5050361;28;20034;-96
2022/01/16 12:15:27;;;;;;;130.65;61.63;;;8.70;92.10;;;;;;5051551;28;20036;-95
2022/01/16 12:17:57;;;;;;;137.55;61.90;;;8.90;92.50;;;;;;5048352;28;20435;-95
2022/01/16 12:20:30;;;;;;;136.63;61.08;;;9.10;91.80;;;;;;5038699;28;20025;-95
2022/01/16 12:23:10;;;;;;;119.93;57.30;;;9.20;91.90;;;;;;5038315;28;20036;-95
2022/01/16 12:25:51;;;;;;;127.68;58.72;;;9.30;91.90;;;;;;5037777;28;20104;-96
2022/01/16 12:28:23;;;;;;;126.00;58.50;;;9.70;91.60;;;;;;5037470;28;20053;-95
2022/01/16 12:31:09;;;;;;;131.15;57.45;;;10.00;90.10;;;;;;5038409;28;20025;-95
2022/01/16 12:33:39;;;;;;;126.78;60.58;;;10.20;90.40;;;;;;5038702;28;20025;-94
2022/01/16 12:36:41;;;;;;;128.65;60.00;;;10.40;89.90;;;;;;5038554;28;20025;-95
2022/01/16 12:39:10;;;;;;;130.45;60.67;;;10.50;88.20;;;;;;5032747;28;20483;-94
2022/01/16 12:41:46;;;;;;;126.63;57.35;;;10.60;89.30;;;;;;5037828;28;20036;-94
2022/01/16 12:44:17;;;;;;;131.52;63.80;;;10.90;89.20;;;;;;5039200;28;20460;-94
2022/01/16 12:46:51;;;;;;;138.10;64.05;;;11.00;88.40;;;;;;5041337;28;20030;-94
2022/01/16 12:49:28;;;;;;;132.38;58.85;;;11.20;86.60;;;;;;5043811;28;20121;-95
2022/01/16 12:51:58;;;;;;;126.03;57.80;;;11.10;85.40;;;;;;5044031;28;20033;-93
2022/01/16 12:54:34;;;;;;;143.23;63.85;;;11.20;87.00;;;;;;5045452;28;20026;-93
2022/01/16 12:57:02;;;;;;;135.60;65.32;;;11.30;85.60;;;;;;5045641;28;20098;-93
2022/01/16 12:59:35;;;;;;;140.48;65.60;;;11.40;86.30;;;;;;5038936;28;20365;-92
2022/01/16 13:02:04;;;;;;;135.07;63.17;;;11.50;83.80;;;;;;5039167;28;20041;-92
2022/01/16 13:04:38;;;;;;;141.63;65.00;;;11.40;83.80;;;;;;5038335;28;20068;-93
2022/01/16 13:07:28;;;;;;;144.27;67.25;;;11.40;83.80;;;;;;5038005;28;20107;-93
2022/01/16 13:09:57;;;;;;;133.07;63.25;;;11.50;84.70;;;;;;5038445;28;20093;-92
2022/01/16 13:12:24;;;;;;;132.05;63.55;;;11.50;84.30;;;;;;5036419;28;20038;-92
2022/01/16 13:14:55;;;;;;;133.80;59.53;;;11.70;84.20;;;;;;5037364;28;20056;-93
2022/01/16 13:17:29;;;;;;;126.95;59.08;;;11.90;83.60;;;;;;5036420;28;20487;-92
2022/01/16 13:19:57;;;;;;;131.77;60.28;;;12.20;83.60;;;;;;5037203;28;20025;-93
2022/01/16 13:22:40;;;;;;;126.60;59.20;;;12.40;81.90;;;;;;5036967;28;20028;-93
2022/01/16 13:25:09;;;;;;;118.60;58.53;;;12.60;81.20;;;;;;5037821;28;20089;-93
2022/01/16 13:27:42;;;;;;;122.50;60.13;;;12.70;80.10;;;;;;5036281;28;20040;-93
2022/01/16 13:30:29;;;;;;;123.85;56.25;;;12.70;79.20;;;;;;5035378;28;20033;-93
2022/01/16 13:33:07;;;;;;;121.15;58.88;;;12.80;79.70;;;;;;5036567;28;20021;-92
2022/01/16 13:35:38;;;;;;;122.22;59.15;;;12.90;79.30;;;;;;5035447;28;20551;-93
2022/01/16 13:38:19;;;;;;;122.03;56.95;;;13.00;78.90;;;;;;5035722;28;20033;-93
2022/01/16 13:40:56;;;;;;;118.63;57.17;;;13.20;79.30;;;;;;5036806;28;20038;-93
2022/01/16 13:43:30;;;;;;;121.43;57.95;;;13.20;76.00;;;;;;5036656;28;20043;-93
2022/01/16 13:45:58;;;;;;;118.63;56.92;;;13.10;75.60;;;;;;5018441;28;20147;-93
2022/01/16 13:48:29;;;;;;;116.38;56.67;;;13.10;75.70;;;;;;5036877;28;20064;-93
2022/01/16 13:51:07;;;;;;;120.72;59.33;;;13.10;75.40;;;;;;5035938;28;20075;-93
2022/01/16 13:53:40;;;;;;;127.85;60.50;;;13.10;75.20;;;;;;5036074;28;20388;-93
2022/01/16 13:56:27;;;;;;;121.53;57.70;;;13.00;75.40;;;;;;5035883;28;20492;-93
2022/01/16 13:58:56;;;;;;;120.57;57.63;;;13.10;75.30;;;;;;5034422;28;20498;-92
2022/01/16 14:01:28;;;;;;;111.60;54.00;;;13.20;74.60;;;;;;5036063;28;20030;-92
2022/01/16 14:03:57;;;;;;;111.45;55.38;;;13.40;76.60;;;;;;5036426;28;20112;-93
2022/01/16 14:06:26;;;;;;;113.00;52.70;;;13.60;75.00;;;;;;5036003;28;20097;-93
2022/01/16 14:09:01;;;;;;;127.28;61.28;;;13.70;74.70;;;;;;5035906;28;20468;-94
2022/01/16 14:11:40;;;;;;;172.10;79.90;;;13.90;74.00;;;;;;5035945;28;20033;-94
2022/01/16 14:14:11;;;;;;;236.23;104.97;;;13.90;73.90;;;;;;5035804;28;20033;-94
2022/01/16 14:20:00;;;;;;;267.75;114.43;;;13.60;74.90;;;;;;5034475;28;20025;-94
2022/01/16 14:22:34;;;;;;;244.15;112.25;;;13.30;74.40;;;;;;5036184;28;20021;-94
2022/01/16 14:25:13;;;;;;;332.00;140.43;;;13.10;76.10;;;;;;5035800;28;20068;-93
2022/01/16 14:27:52;;;;;;;;;;;;;;;;;;;;;
2022/01/16 14:30:23;;;;;;;333.42;143.77;;;12.90;76.40;;;;;;5036608;28;20116;-93
2022/01/16 14:32:53;;;;;;;306.75;131.43;;;12.80;76.40;;;;;;5036038;28;20124;-94
2022/01/16 14:35:23;;;;;;;295.67;130.60;;;12.60;76.40;;;;;;5035443;28;20044;-94
2022/01/16 14:37:57;;;;;;;296.55;128.18;;;12.40;77.10;;;;;;5035958;28;20025;-93
2022/01/16 14:43:57;;;;;;;432.95;196.90;;;12.20;77.80;;;;;;5036391;28;20048;-93
2022/01/16 14:46:28;;;;;;;401.83;178.32;;;12.20;77.50;;;;;;5035287;28;20037;-94
2022/01/16 14:48:57;;;;;;;344.67;145.23;;;11.90;77.50;;;;;;5035035;28;20025;-93
2022/01/16 14:51:26;;;;;;;262.38;113.88;;;11.60;77.00;;;;;;5035202;28;20064;-93
2022/01/16 14:54:00;;;;;;;216.25;93.88;;;11.30;76.90;;;;;;5035667;28;20036;-94
2022/01/16 14:56:35;;;;;;;214.13;89.63;;;11.10;76.70;;;;;;5035228;28;20028;-93
2022/01/16 14:59:06;;;;;;;246.80;103.60;;;10.90;76.60;;;;;;5035175;28;20017;-93
2022/01/16 15:01:41;;;;;;;252.18;107.25;;;10.30;77.00;;;;;;5018151;28;20018;-94
2022/01/16 15:04:12;;;;;;;259.90;111.70;;;10.00;78.60;;;;;;5035537;28;20006;-93
2022/01/16 15:06:42;;;;;;;265.08;110.60;;;9.70;79.40;;;;;;5035562;28;20029;-94
2022/01/16 15:09:11;;;;;;;245.60;104.97;;;9.50;79.70;;;;;;5037972;28;20084;-93
2022/01/16 15:11:43;;;;;;;236.18;100.38;;;9.20;80.10;;;;;;5036577;28;20028;-93
2022/01/16 15:14:21;;;;;;;218.25;91.93;;;9.00;81.90;;;;;;5037709;28;20029;-93
2022/01/16 15:16:55;;;;;;;227.65;93.20;;;8.90;82.90;;;;;;5037758;28;20025;-94
2022/01/16 15:19:21;;;;;;;210.05;91.55;;;8.70;81.50;;;;;;5037962;28;20025;-93
2022/01/16 15:22:09;;;;;;;211.45;88.13;;;8.40;82.00;;;;;;5037833;28;20037;-93
2022/01/16 15:24:51;;;;;;;;;;;;;;;;;;;;;
2022/01/16 15:27:22;;;;;;;229.60;96.43;;;7.80;83.90;;;;;;5050079;28;20049;-93
2022/01/16 15:29:48;;;;;;;228.40;91.55;;;7.60;85.00;;;;;;5038683;28;20017;-93
2022/01/16 15:32:15;;;;;;;256.27;102.85;;;7.50;86.00;;;;;;5038613;28;20021;-93
2022/01/16 15:34:43;;;;;;;316.90;120.75;;;7.40;87.00;;;;;;5038319;28;20052;-93
2022/01/16 15:37:16;;;;;;;273.73;110.70;;;7.30;86.60;;;;;;5038531;28;20033;-93
2022/01/16 15:39:58;;;;;;;317.77;123.85;;;7.10;87.10;;;;;;5038865;28;20363;-93
2022/01/16 15:42:33;;;;;;;378.65;143.48;;;6.80;88.30;;;;;;5037576;28;20033;-93
2022/01/16 15:45:04;;;;;;;390.98;150.07;;;6.70;88.90;;;;;;5038256;28;20445;-94
2022/01/16 15:47:38;;;;;;;342.02;132.20;;;6.60;89.50;;;;;;5040633;28;20467;-94
2022/01/16 15:50:06;;;;;;;316.25;121.20;;;6.60;90.00;;;;;;5038681;28;20464;-95
2022/01/16 15:52:32;;;;;;;320.90;126.47;;;6.50;89.60;;;;;;5037868;28;20112;-93
2022/01/16 15:58:27;;;;;;;329.77;131.35;;;6.30;90.40;;;;;;5062495;28;20577;-94
2022/01/16 16:01:01;;;;;;;285.63;116.55;;;6.20;90.50;;;;;;5041443;28;20036;-94
2022/01/16 16:03:30;;;;;;;288.42;114.35;;;6.20;90.70;;;;;;5041676;28;20032;-95
2022/01/16 16:06:19;;;;;;;270.75;111.03;;;6.20;90.20;;;;;;5042073;28;20474;-95
2022/01/16 16:12:25;;;;;;;256.83;106.85;;;6.20;90.80;;;;;;4936050;28;20055;-95
2022/01/16 16:14:58;;;;;;;292.88;117.65;;;6.10;91.00;;;;;;5018723;28;20030;-94
2022/01/16 16:17:47;;;;;;;257.20;110.18;;;6.10;90.80;;;;;;5018160;28;20058;-94
2022/01/16 16:20:21;;;;;;;378.63;151.40;;;6.00;91.20;;;;;;5018108;28;20025;-95
2022/01/16 16:22:57;;;;;;;353.77;139.80;;;6.00;90.90;;;;;;5018012;28;20061;-95
2022/01/16 16:25:30;;;;;;;324.98;130.57;;;5.90;91.10;;;;;;5018249;28;20088;-95
2022/01/16 16:28:08;;;;;;;430.58;173.13;;;5.90;91.10;;;;;;5018035;28;20064;-93
2022/01/16 16:30:34;;;;;;;420.58;166.40;;;5.80;91.10;;;;;;5018118;28;20369;-94
2022/01/16 16:33:01;;;;;;;419.05;166.38;;;5.60;91.20;;;;;;5018855;28;20033;-95
2022/01/16 16:35:35;;;;;;;411.63;163.25;;;5.50;91.40;;;;;;5020973;28;20049;-94
2022/01/16 16:38:01;;;;;;;397.70;156.60;;;5.30;91.60;;;;;;5023070;28;20126;-94
2022/01/16 16:40:31;;;;;;;411.80;158.75;;;5.20;91.90;;;;;;5021656;28;20042;-95
2022/01/16 16:43:00;;;;;;;430.20;156.82;;;5.10;92.40;;;;;;5022283;28;20037;-94
2022/01/16 16:45:29;;;;;;;373.50;139.02;;;5.10;92.30;;;;;;5021700;28;20030;-94
2022/01/16 16:47:55;;;;;;;386.52;145.88;;;5.10;92.50;;;;;;5022588;28;20041;-94
2022/01/16 16:57:17;;;;;;;389.83;142.25;;;4.90;92.90;;;;;;4998021;28;20029;-94
2022/01/16 17:00:09;;;;;;;356.27;133.98;;;4.80;93.10;;;;;;5020286;28;20013;-94
2022/01/16 17:02:50;;;;;;;372.10;137.80;;;4.80;93.10;;;;;;5010135;28;20042;-94
2022/01/16 17:05:19;;;;;;;407.88;151.52;;;4.80;93.30;;;;;;5018716;28;20080;-94
2022/01/16 17:07:48;;;;;;;397.33;152.95;;;4.80;93.00;;;;;;5016935;28;20057;-94
2022/01/16 17:10:37;;;;;;;419.90;161.35;;;4.70;93.60;;;;;;5017122;28;20033;-95
2022/01/16 17:13:25;;;;;;;398.88;153.27;;;4.70;93.40;;;;;;5028811;28;20052;-94
2022/01/16 17:22:24;;;;;;;408.92;153.55;;;4.60;93.60;;;;;;5038100;28;20024;-94
2022/01/16 17:25:25;;;;;;;396.15;148.27;;;4.50;93.70;;;;;;5037435;28;20476;-94
2022/01/16 17:27:54;;;;;;;397.05;149.23;;;4.40;93.90;;;;;;5037078;28;20103;-95
2022/01/16 17:30:39;;;;;;;419.92;160.30;;;4.40;94.10;;;;;;5031815;28;20091;-94
2022/01/16 17:33:27;;;;;;;410.98;156.70;;;4.40;94.00;;;;;;5036439;28;20029;-91
2022/01/16 17:36:06;;;;;;;454.60;181.88;;;4.30;93.80;;;;;;5036500;28;20044;-94
2022/01/16 17:45:12;;;;;;;420.80;160.68;;;4.00;94.40;;;;;;5037598;28;20040;-95
2022/01/16 17:47:38;;;;;;;393.33;149.52;;;3.90;94.90;;;;;;5033958;28;20037;-95
2022/01/16 17:50:10;;;;;;;409.33;152.50;;;3.80;94.60;;;;;;5037078;28;20025;-94
2022/01/16 17:52:41;;;;;;;397.88;148.32;;;3.70;94.90;;;;;;5035984;28;20025;-95
2022/01/16 17:55:20;;;;;;;352.65;131.55;;;3.80;95.30;;;;;;5035895;28;20034;-95
2022/01/16 17:57:50;;;;;;;354.65;133.80;;;3.80;95.20;;;;;;5035968;28;20021;-95
2022/01/16 18:00:31;;;;;;;345.60;131.80;;;3.80;95.20;;;;;;5036700;28;20079;-94
2022/01/16 18:03:09;;;;;;;323.83;122.82;;;3.70;95.30;;;;;;5035907;28;20037;-95
2022/01/16 18:09:10;;;;;;;298.08;113.10;;;3.80;95.50;;;;;;4976501;28;20042;-94
2022/01/16 18:11:38;;;;;;;308.45;113.28;;;3.90;95.40;;;;;;5045079;28;20042;-95
2022/01/16 18:14:04;;;;;;;322.02;117.90;;;3.90;95.10;;;;;;5144545;23;20298;-93
2022/01/16 18:16:31;;;;;;;343.33;125.53;;;3.80;95.00;;;;;;5035556;28;20024;-93
2022/01/16 18:22:19;;;;;;;302.38;113.38;;;3.80;95.50;;;;;;5036943;28;20044;-93
2022/01/16 18:24:45;;;;;;;310.83;111.95;;;3.80;95.20;;;;;;5036051;28;20029;-93
2022/01/16 18:27:15;;;;;;;325.83;115.85;;;3.80;95.00;;;;;;5035422;28;20064;-94
2022/01/16 18:29:44;;;;;;;365.15;127.20;;;3.70;95.10;;;;;;5036592;28;20022;-93
2022/01/16 18:32:13;;;;;;;350.20;128.73;;;3.70;95.20;;;;;;5035609;28;20100;-92
2022/01/16 18:34:42;;;;;;;331.17;126.90;;;3.50;95.20;;;;;;5035003;28;20034;-93
2022/01/16 18:37:36;;;;;;;347.42;126.10;;;3.50;95.40;;;;;;5032623;28;20034;-93
2022/01/16 18:40:12;;;;;;;338.85;122.28;;;3.50;95.50;;;;;;5036276;28;20025;-93
2022/01/16 18:42:44;;;;;;;330.80;114.40;;;3.40;95.60;;;;;;5037185;28;20049;-93
2022/01/16 18:45:12;;;;;;;400.17;137.27;;;3.40;95.60;;;;;;5035365;28;20049;-93
2022/01/16 18:51:02;;;;;;;399.52;146.65;;;3.50;95.40;;;;;;5036406;28;20037;-93
2022/01/16 18:53:33;;;;;;;359.75;132.90;;;3.50;95.10;;;;;;5034769;28;20025;-93
2022/01/16 18:56:00;;;;;;;374.77;142.63;;;3.40;95.20;;;;;;5034790;28;20041;-93
2022/01/16 18:58:26;;;;;;;364.75;140.77;;;3.30;95.30;;;;;;5035501;28;20116;-92
2022/01/16 19:00:54;;;;;;;329.63;128.68;;;3.10;95.60;;;;;;5035440;28;20432;-93
2022/01/16 19:03:30;;;;;;;306.58;119.63;;;3.00;95.70;;;;;;5035094;28;20460;-93
2022/01/16 19:05:59;;;;;;;291.48;113.10;;;2.90;95.70;;;;;;5035602;28;20048;-94
2022/01/16 19:08:29;;;;;;;298.92;114.85;;;2.80;95.80;;;;;;5035338;28;20029;-92
2022/01/16 19:11:01;;;;;;;306.67;116.28;;;2.80;96.20;;;;;;5035602;28;20041;-93
2022/01/16 19:13:39;;;;;;;275.55;105.15;;;2.80;96.40;;;;;;5035519;28;20345;-93
2022/01/16 19:16:17;;;;;;;273.83;107.25;;;2.80;96.00;;;;;;5034307;28;20510;-93
2022/01/16 19:18:43;;;;;;;315.50;118.55;;;2.70;96.20;;;;;;5034990;28;20080;-92
2022/01/16 19:21:10;;;;;;;304.00;116.97;;;2.70;95.80;;;;;;5037612;28;20129;-93
2022/01/16 19:23:47;;;;;;;309.45;118.30;;;2.50;96.00;;;;;;5034340;28;20038;-93
2022/01/16 19:26:21;;;;;;;305.80;114.75;;;2.30;96.70;;;;;;5034363;28;20379;-93
2022/01/16 19:28:53;;;;;;;265.92;103.47;;;2.20;97.20;;;;;;5036288;28;20076;-93
2022/01/16 19:34:44;;;;;;;278.77;100.82;;;2.30;97.60;;;;;;5040119;28;20572;-93
2022/01/16 19:37:10;;;;;;;329.83;114.38;;;2.40;97.50;;;;;;5038750;28;20021;-94
2022/01/16 19:39:39;;;;;;;306.38;106.32;;;2.50;97.00;;;;;;5038992;28;20054;-92
2022/01/16 19:42:18;;;;;;;316.17;115.97;;;2.40;97.00;;;;;;5037506;28;20021;-94
2022/01/16 19:44:47;;;;;;;289.75;107.32;;;2.40;97.10;;;;;;5038144;28;20029;-92
2022/01/16 19:47:17;;;;;;;273.70;100.38;;;2.40;97.10;;;;;;5037316;28;20053;-93
2022/01/16 19:49:53;;;;;;;322.52;114.68;;;2.40;97.00;;;;;;5038201;28;20124;-93
2022/01/16 19:56:00;;;;;;;318.08;113.70;;;2.40;97.00;;;;;;4979123;28;20037;-93
2022/01/16 19:58:29;;;;;;;364.30;129.70;;;2.40;97.10;;;;;;5034860;28;20037;-93
2022/01/16 20:01:06;;;;;;;367.65;126.07;;;2.40;97.00;;;;;;5037712;28;20059;-92
2022/01/16 20:03:39;;;;;;;351.40;125.10;;;2.30;96.90;;;;;;5037924;28;20036;-92
2022/01/16 20:06:08;;;;;;;427.83;149.55;;;2.40;97.00;;;;;;5038619;28;20009;-93
2022/01/16 20:08:56;;;;;;;422.50;149.20;;;2.40;96.80;;;;;;5039385;28;20037;-93
2022/01/16 20:11:50;;;;;;;423.23;154.55;;;2.30;96.80;;;;;;5038082;28;20025;-93
2022/01/16 20:14:28;;;;;;;452.40;172.35;;;2.30;96.80;;;;;;5041989;28;20052;-93
2022/01/16 20:16:57;;;;;;;492.90;193.25;;;2.20;96.70;;;;;;5044058;28;20045;-94
2022/01/16 20:19:26;;;;;;;462.67;176.50;;;2.00;96.80;;;;;;5041075;28;20470;-94
2022/01/16 20:25:32;;;;;;;394.33;141.70;;;1.90;97.60;;;;;;5059129;28;20544;-92
2022/01/16 20:28:00;;;;;;;385.95;138.48;;;1.90;97.60;;;;;;5041648;28;20021;-93
2022/01/16 20:30:30;;;;;;;395.20;140.13;;;1.90;97.30;;;;;;5041851;28;20025;-93
2022/01/16 20:33:05;;;;;;;367.80;131.35;;;1.90;97.50;;;;;;5041486;28;20021;-93
2022/01/16 20:35:34;;;;;;;365.55;131.30;;;1.90;97.40;;;;;;5040744;28;20041;-93
2022/01/16 20:38:06;;;;;;;341.50;126.38;;;1.90;97.50;;;;;;5040899;28;20349;-93
2022/01/16 20:40:34;;;;;;;371.55;136.52;;;1.80;97.30;;;;;;5040346;28;20057;-93
2022/01/16 20:43:05;;;;;;;330.88;122.55;;;1.90;97.50;;;;;;5041740;28;20063;-93
2022/01/16 20:45:35;;;;;;;354.02;127.70;;;1.90;97.60;;;;;;5040586;28;20005;-93
2022/01/16 20:48:10;;;;;;;370.75;133.52;;;1.90;97.60;;;;;;5041075;28;20035;-93
2022/01/16 20:54:17;;;;;;;363.45;132.68;;;1.80;97.50;;;;;;4997517;28;20029;-93
2022/01/16 20:56:44;;;;;;;369.25;133.10;;;1.70;97.90;;;;;;5053533;28;20041;-93
2022/01/16 20:59:10;;;;;;;318.35;117.82;;;1.60;97.90;;;;;;5040414;28;20017;-93
2022/01/16 21:01:45;;;;;;;347.60;126.10;;;1.60;98.00;;;;;;5040215;28;20024;-94
2022/01/16 21:04:14;;;;;;;333.65;123.88;;;1.60;98.00;;;;;;5042980;28;20025;-94
2022/01/16 21:06:47;;;;;;;378.45;136.93;;;1.70;97.90;;;;;;5040063;28;20060;-93
2022/01/16 21:09:22;;;;;;;380.80;141.10;;;1.70;98.00;;;;;;5041588;28;20467;-93
2022/01/16 21:11:51;;;;;;;330.33;119.78;;;1.70;97.70;;;;;;5041152;28;20001;-94
2022/01/16 21:14:26;;;;;;;309.30;115.70;;;1.60;97.80;;;;;;5040301;28;20040;-93
2022/01/16 21:16:53;;;;;;;321.15;115.53;;;1.60;97.80;;;;;;5040339;28;20029;-93
2022/01/16 21:19:23;;;;;;;320.90;116.22;;;1.60;97.90;;;;;;5040046;28;20079;-94
2022/01/16 21:21:51;;;;;;;288.50;106.55;;;1.60;97.70;;;;;;5039755;28;20041;-94
2022/01/16 21:24:20;;;;;;;327.70;122.05;;;1.50;97.80;;;;;;5040440;28;20051;-94
2022/01/16 21:27:05;;;;;;;324.05;119.93;;;1.60;97.80;;;;;;5040727;28;20424;-94
2022/01/16 21:29:32;;;;;;;371.53;132.60;;;1.60;97.90;;;;;;5040717;28;20033;-93
2022/01/16 21:32:00;;;;;;;333.80;126.22;;;1.50;97.70;;;;;;5040026;28;20365;-93
2022/01/16 21:34:31;;;;;;;298.77;111.63;;;1.40;97.90;;;;;;5040215;28;20029;-93
2022/01/16 21:37:00;;;;;;;324.73;118.30;;;1.40;98.10;;;;;;5039919;28;20057;-94
2022/01/16 21:39:26;;;;;;;359.83;130.35;;;1.40;97.90;;;;;;5040206;28;20067;-93
2022/01/16 21:41:54;;;;;;;406.90;147.00;;;1.50;97.90;;;;;;5040162;28;20032;-93
2022/01/16 21:44:22;;;;;;;416.42;150.85;;;1.50;97.30;;;;;;5040154;28;20025;-94
2022/01/16 21:46:48;;;;;;;387.40;139.40;;;1.30;97.60;;;;;;5040389;28;20460;-93
2022/01/16 21:49:17;;;;;;;418.48;147.15;;;1.20;98.00;;;;;;5039741;28;20388;-93
2022/01/16 21:51:47;;;;;;;425.23;155.90;;;1.10;98.10;;;;;;5038648;28;20040;-94
2022/01/16 21:54:30;;;;;;;436.80;168.30;;;1.10;97.70;;;;;;5039893;28;20210;-93
2022/01/16 21:57:00;;;;;;;430.45;154.63;;;1.00;97.70;;;;;;5038537;28;20049;-94
2022/01/16 21:59:26;;;;;;;385.15;139.38;;;0.90;98.50;;;;;;5040012;28;20428;-93
2022/01/16 22:01:55;;;;;;;356.98;130.95;;;0.90;98.60;;;;;;5040053;28;20021;-93
2022/01/16 22:04:24;;;;;;;325.40;117.72;;;0.90;98.70;;;;;;5039326;28;20078;-94
2022/01/16 22:07:00;;;;;;;338.13;120.82;;;1.00;98.60;;;;;;5039079;28;20035;-93
2022/01/16 22:09:28;;;;;;;321.38;112.90;;;1.00;98.50;;;;;;5040348;28;20017;-93
2022/01/16 22:12:09;;;;;;;395.33;139.13;;;1.00;98.20;;;;;;5040078;28;20523;-93
2022/01/16 22:14:38;;;;;;;383.83;133.98;;;0.80;98.20;;;;;;5039928;28;20109;-93
2022/01/16 22:17:09;;;;;;;380.85;135.07;;;0.70;99.00;;;;;;5039367;28;20411;-93
2022/01/16 22:19:35;;;;;;;336.65;121.78;;;0.70;99.00;;;;;;5040116;28;20495;-93
2022/01/16 22:22:24;;;;;;;367.08;126.63;;;0.70;98.90;;;;;;5041194;28;20040;-93
2022/01/16 22:24:51;;;;;;;374.15;132.05;;;0.70;99.00;;;;;;5022916;28;20033;-93
2022/01/16 22:27:33;;;;;;;391.00;135.25;;;0.70;98.70;;;;;;5039179;28;20021;-93
2022/01/16 22:30:09;;;;;;;381.70;128.23;;;0.70;98.90;;;;;;5038518;28;20041;-94
2022/01/16 22:32:38;;;;;;;423.58;140.65;;;0.70;98.90;;;;;;5039212;28;20053;-93
2022/01/16 22:35:07;;;;;;;392.38;134.07;;;0.70;98.80;;;;;;5038512;28;20036;-94
2022/01/16 22:37:38;;;;;;;373.88;126.35;;;0.60;98.90;;;;;;5039464;28;20364;-93
2022/01/16 22:40:04;;;;;;;372.40;128.82;;;0.60;99.10;;;;;;5038720;28;20025;-93
2022/01/16 22:42:34;;;;;;;348.30;121.85;;;0.70;99.10;;;;;;5038865;28;20025;-94
2022/01/16 22:45:10;;;;;;;350.52;121.70;;;0.70;98.70;;;;;;5039181;28;20029;-93
2022/01/16 22:47:39;;;;;;;403.08;136.95;;;0.60;98.60;;;;;;5038130;28;20060;-93
2022/01/16 22:50:13;;;;;;;359.38;120.90;;;0.50;99.00;;;;;;5039513;28;20056;-94
2022/01/16 22:52:39;;;;;;;348.38;120.25;;;0.50;99.30;;;;;;5037472;28;20033;-94
2022/01/16 22:55:05;;;;;;;313.20;109.32;;;0.60;99.30;;;;;;5038345;28;20037;-93
2022/01/16 22:57:31;;;;;;;318.00;115.00;;;0.70;99.20;;;;;;5038759;28;20021;-93
2022/01/16 23:00:06;;;;;;;375.98;134.50;;;0.70;98.60;;;;;;5039397;28;20037;-93
2022/01/16 23:02:34;;;;;;;370.88;125.97;;;0.70;98.30;;;;;;5038668;28;20375;-93
2022/01/16 23:05:00;;;;;;;383.77;130.40;;;0.60;98.60;;;;;;5038740;28;20498;-92
2022/01/16 23:07:28;;;;;;;409.38;144.88;;;0.60;98.80;;;;;;5038626;28;20025;-93
2022/01/16 23:09:59;;;;;;;358.05;122.80;;;0.40;98.80;;;;;;5038139;28;20009;-93
2022/01/16 23:12:27;;;;;;;358.75;115.07;;;0.30;99.20;;;;;;5039290;28;20440;-93
2022/01/16 23:14:53;;;;;;;326.30;111.70;;;0.40;99.10;;;;;;5038012;28;20037;-93
2022/01/16 23:17:19;;;;;;;341.80;116.60;;;0.30;98.80;;;;;;5036762;28;20068;-94
2022/01/16 23:19:52;;;;;;;365.60;121.53;;;0.30;98.90;;;;;;5038290;28;20055;-93
2022/01/16 23:22:22;;;;;;;362.45;123.35;;;0.30;99.10;;;;;;5038167;28;20021;-92
2022/01/16 23:24:55;;;;;;;354.83;117.15;;;0.30;99.20;;;;;;5038587;28;20424;-93
2022/01/16 23:27:24;;;;;;;344.42;112.03;;;0.40;99.30;;;;;;5038992;28;20452;-93
2022/01/16 23:29:55;;;;;;;319.48;107.45;;;0.40;99.20;;;;;;5038234;28;20021;-93
2022/01/16 23:32:21;;;;;;;285.65;99.70;;;0.40;99.10;;;;;;5038695;28;20021;-94
2022/01/16 23:34:53;;;;;;;332.48;115.30;;;0.50;99.20;;;;;;5038530;28;20468;-93
2022/01/16 23:37:19;;;;;;;479.60;176.70;;;0.50;98.70;;;;;;5037922;28;20107;-93
2022/01/16 23:39:45;;;;;;;426.45;148.23;;;0.50;98.80;;;;;;5038183;28;20021;-93
2022/01/16 23:42:15;;;;;;;402.42;137.20;;;0.50;99.50;;;;;;5038139;28;20025;-93
2022/01/16 23:44:42;;;;;;;412.67;136.90;;;0.60;99.60;;;;;;5038866;28;20021;-94
2022/01/16 23:47:07;;;;;;;419.90;133.73;;;0.60;99.40;;;;;;5037755;28;20029;-94
2022/01/16 23:49:36;;;;;;;384.27;124.50;;;0.60;99.20;;;;;;5038487;28;20021;-94
2022/01/16 23:52:17;;;;;;;423.15;140.20;;;0.60;99.30;;;;;;5038078;28;20074;-94
2022/01/16 23:54:43;;;;;;;366.83;118.00;;;0.60;99.60;;;;;;5038226;28;20029;-92
2022/01/16 23:57:09;;;;;;;371.48;126.07;;;0.60;99.60;;;;;;5037358;28;20036;-93
2022/01/16 23:59:42;;;;;;;329.48;113.53;;;0.60;99.60;;;;;;5038077;28;20029;-94
